createdAt,value
2018-02-25T00:01:35.721Z,99916.41
2018-02-25T00:04:09.466Z,99920.55
2018-02-25T00:06:43.184Z,99923.54
2018-02-25T00:09:16.937Z,99917.07
2018-02-25T00:11:50.821Z,99928.34
2018-02-25T00:14:24.768Z,99923.48
2018-02-25T00:20:08.364Z,99927.42
2018-02-25T00:22:42.069Z,99934.66
2018-02-25T00:25:15.984Z,99937.97
2018-02-25T00:27:49.940Z,99932.45
2018-02-25T00:30:23.600Z,99938.79
2018-02-25T00:32:57.381Z,99951.66
2018-02-25T00:35:31.128Z,99954.30
2018-02-25T00:38:04.883Z,99953.33
2018-02-25T00:40:38.649Z,99958.63
2018-02-25T00:43:12.442Z,99962.98
2018-02-25T00:45:46.214Z,99958.72
2018-02-25T00:48:20.256Z,99961.56
2018-02-25T00:50:54.152Z,99961.74
2018-02-25T00:53:28.069Z,99965.09
2018-02-25T00:56:01.830Z,99965.75
2018-02-25T00:58:35.550Z,99964.16
2018-02-25T01:01:09.363Z,99967.50
2018-02-25T01:03:43.067Z,99971.83
2018-02-25T01:06:16.786Z,99967.50
2018-02-25T01:08:50.570Z,99972.52
2018-02-25T01:11:24.422Z,99971.38
2018-02-25T01:13:58.272Z,99969.44
2018-02-25T01:16:32.115Z,99974.75
2018-02-25T01:19:05.906Z,99973.80
2018-02-25T01:21:39.759Z,99972.16
2018-02-25T01:24:13.616Z,99974.67
2018-02-25T01:26:47.372Z,99975.81
2018-02-25T01:29:21.177Z,99979.33
2018-02-25T01:31:55.022Z,99976.41
2018-02-25T01:34:28.786Z,99969.83
2018-02-25T01:37:02.682Z,99960.50
2018-02-25T01:39:36.456Z,99957.55
2018-02-25T01:42:10.272Z,99965.95
2018-02-25T01:44:44.110Z,99972.02
2018-02-25T01:47:17.887Z,99974.91
2018-02-25T01:49:51.614Z,99961.67
2018-02-25T01:52:25.467Z,99966.52
2018-02-25T01:54:59.396Z,99967.02
2018-02-25T01:57:33.219Z,99974.17
2018-02-25T02:00:06.984Z,99972.53
2018-02-25T02:02:40.757Z,99958.70
2018-02-25T02:05:14.530Z,99959.48
2018-02-25T02:07:48.246Z,99966.91
2018-02-25T02:10:22.128Z,99953.78
2018-02-25T02:12:55.978Z,99959.98
2018-02-25T02:15:29.750Z,99960.44
2018-02-25T02:18:03.499Z,99958.56
2018-02-25T02:20:37.422Z,99964.05
2018-02-25T02:23:11.290Z,99958.06
2018-02-25T02:25:45.288Z,99962.73
2018-02-25T02:28:19.507Z,99968.06
2018-02-25T02:30:53.263Z,99975.58
2018-02-25T02:33:27.013Z,99966.41
2018-02-25T02:36:00.748Z,99968.82
2018-02-25T02:38:34.537Z,99980.16
2018-02-25T02:41:08.268Z,99975.20
2018-02-25T02:43:41.972Z,99978.52
2018-02-25T02:46:16.055Z,99977.70
2018-02-25T02:48:50.048Z,99976.73
2018-02-25T02:51:23.823Z,99972.89
2018-02-25T02:53:57.705Z,99980.77
2018-02-25T02:56:31.566Z,99982.12
2018-02-25T02:59:05.494Z,99984.95
2018-02-25T03:01:39.347Z,99985.41
2018-02-25T03:04:13.225Z,99981.38
2018-02-25T03:06:46.954Z,99983.38
2018-02-25T03:09:20.814Z,99984.56
2018-02-25T03:11:54.690Z,99989.50
2018-02-25T03:14:28.434Z,99988.86
2018-02-25T03:17:07.919Z,99993.91
2018-02-25T03:19:41.670Z,99988.48
2018-02-25T03:22:15.503Z,99990.98
2018-02-25T03:24:49.503Z,99988.02
2018-02-25T03:27:23.371Z,99988.98
2018-02-25T03:29:57.117Z,99984.34
2018-02-25T03:32:30.954Z,99991.30
2018-02-25T03:35:04.730Z,99988.39
2018-02-25T03:37:38.470Z,99991.09
2018-02-25T03:40:12.306Z,99996.73
2018-02-25T03:42:46.038Z,99994.06
2018-02-25T03:45:19.876Z,99996.11
2018-02-25T03:47:53.579Z,99992.39
2018-02-25T03:50:27.399Z,99995.14
2018-02-25T03:53:01.303Z,100002.85
2018-02-25T03:55:35.062Z,100004.09
2018-02-25T03:58:08.919Z,100005.23
2018-02-25T04:00:42.886Z,100011.34
2018-02-25T04:03:16.579Z,100011.82
2018-02-25T04:05:50.407Z,100010.22
2018-02-25T04:08:24.107Z,100016.76
2018-02-25T04:10:57.872Z,100016.71
2018-02-25T04:13:31.823Z,100020.48
2018-02-25T04:16:05.543Z,100019.09
2018-02-25T04:18:39.299Z,100018.17
2018-02-25T04:21:13.102Z,100026.05
2018-02-25T04:23:46.843Z,100026.41
2018-02-25T04:26:20.719Z,100033.09
2018-02-25T04:28:54.574Z,100037.56
2018-02-25T04:31:28.447Z,100036.33
2018-02-25T04:34:02.171Z,100048.53
2018-02-25T04:36:35.998Z,100037.95
2018-02-25T04:39:09.700Z,100042.11
2018-02-25T04:41:43.617Z,100054.13
2018-02-25T04:44:17.527Z,100048.13
2018-02-25T04:50:02.715Z,100058.91
2018-02-25T04:52:36.506Z,100061.83
2018-02-25T04:55:10.204Z,100059.50
2018-02-25T04:57:44.239Z,100060.48
2018-02-25T05:00:18.076Z,100065.34
2018-02-25T05:02:51.918Z,100066.65
2018-02-25T05:05:25.696Z,100064.94
2018-02-25T05:07:59.630Z,100070.98
2018-02-25T05:10:33.571Z,100070.05
2018-02-25T05:13:07.311Z,100072.39
2018-02-25T05:15:41.186Z,100079.56
2018-02-25T05:18:14.919Z,100072.73
2018-02-25T05:20:48.671Z,100080.06
2018-02-25T05:23:22.466Z,100083.97
2018-02-25T05:25:56.447Z,100088.19
2018-02-25T05:28:30.175Z,100089.16
2018-02-25T05:31:03.908Z,100087.77
2018-02-25T05:33:37.627Z,100093.63
2018-02-25T05:36:12.270Z,100094.94
2018-02-25T05:38:46.146Z,100091.72
2018-02-25T05:41:19.843Z,100087.42
2018-02-25T05:43:53.798Z,100084.13
2018-02-25T05:46:27.531Z,100091.48
2018-02-25T05:49:01.333Z,100084.75
2018-02-25T05:51:35.106Z,100083.09
2018-02-25T05:54:08.889Z,100079.62
2018-02-25T05:56:42.728Z,100076.09
2018-02-25T05:59:16.519Z,100078.88
2018-02-25T06:01:50.422Z,100080.78
2018-02-25T06:04:24.155Z,100083.59
2018-02-25T06:06:58.078Z,100076.42
2018-02-25T06:09:31.818Z,100085.09
2018-02-25T06:12:05.803Z,100085.25
2018-02-25T06:14:39.652Z,100083.42
2018-02-25T06:17:13.431Z,100083.09
2018-02-25T06:19:47.166Z,100080.62
2018-02-25T06:22:20.978Z,100082.76
2018-02-25T06:24:54.866Z,100080.29
2018-02-25T06:27:28.630Z,100081.63
2018-02-25T06:30:02.416Z,100088.47
2018-02-25T06:32:36.199Z,100086.58
2018-02-25T06:35:10.107Z,100093.56
2018-02-25T06:37:43.927Z,100092.48
2018-02-25T06:40:17.752Z,100092.25
2018-02-25T06:42:51.467Z,100098.94
2018-02-25T06:45:25.326Z,100097.20
2018-02-25T06:47:59.023Z,100101.81
2018-02-25T06:50:32.883Z,100106.10
2018-02-25T06:53:06.589Z,100106.42
2018-02-25T06:55:40.375Z,100112.39
2018-02-25T06:58:14.230Z,100113.11
2018-02-25T07:00:47.974Z,100124.83
2018-02-25T07:03:21.732Z,100122.55
2018-02-25T07:05:55.535Z,100125.75
2018-02-25T07:08:29.258Z,100129.71
2018-02-25T07:11:03.022Z,100130.03
2018-02-25T07:13:36.716Z,100136.46
2018-02-25T07:16:10.513Z,100132.16
2018-02-25T07:18:44.275Z,100139.02
2018-02-25T07:21:18.080Z,100134.80
2018-02-25T07:23:51.838Z,100137.33
2018-02-25T07:26:25.773Z,100145.34
2018-02-25T07:28:59.519Z,100145.35
2018-02-25T07:31:33.536Z,100143.50
2018-02-25T07:34:07.397Z,100142.37
2018-02-25T07:36:41.155Z,100136.34
2018-02-25T07:39:14.917Z,100127.47
2018-02-25T07:41:48.704Z,100122.36
2018-02-25T07:44:22.338Z,100132.64
2018-02-25T07:46:56.126Z,100124.66
2018-02-25T07:49:29.807Z,100127.66
2018-02-25T07:52:03.520Z,100114.45
2018-02-25T07:54:37.214Z,100120.14
2018-02-25T07:57:10.949Z,100121.17
2018-02-25T07:59:44.594Z,100134.56
2018-02-25T08:02:18.279Z,100132.06
2018-02-25T08:04:52.064Z,100122.70
2018-02-25T08:07:25.771Z,100125.69
2018-02-25T08:09:59.467Z,100118.42
2018-02-25T08:12:33.210Z,100119.81
2018-02-25T08:15:06.859Z,100124.06
2018-02-25T08:17:40.587Z,100129.78
2018-02-25T08:20:14.350Z,100123.66
2018-02-25T08:22:48.134Z,100134.81
2018-02-25T08:25:21.830Z,100128.78
2018-02-25T08:27:55.686Z,100133.13
2018-02-25T08:30:29.375Z,100129.05
2018-02-25T08:33:03.127Z,100140.96
2018-02-25T08:35:36.933Z,100138.48
2018-02-25T08:38:10.652Z,100134.45
2018-02-25T08:40:44.422Z,100132.87
2018-02-25T08:43:18.114Z,100130.23
2018-02-25T08:45:51.787Z,100143.57
2018-02-25T08:48:25.638Z,100130.02
2018-02-25T08:50:59.348Z,100122.83
2018-02-25T08:53:33.767Z,100120.62
2018-02-25T08:56:07.626Z,100145.65
2018-02-25T08:58:41.332Z,100143.39
2018-02-25T09:01:15.141Z,100154.70
2018-02-25T09:03:48.788Z,100140.09
2018-02-25T09:06:22.468Z,100139.11
2018-02-25T09:08:56.298Z,100123.13
2018-02-25T09:11:29.939Z,100119.44
2018-02-25T09:14:03.772Z,100136.64
2018-02-25T09:16:37.598Z,100146.73
2018-02-25T09:19:11.574Z,100155.83
2018-02-25T09:21:45.441Z,100159.25
2018-02-25T09:24:19.049Z,100154.06
2018-02-25T09:26:52.770Z,100161.55
2018-02-25T09:29:26.726Z,100158.42
2018-02-25T09:32:00.387Z,100156.25
2018-02-25T09:34:34.061Z,100153.59
2018-02-25T09:37:07.758Z,100154.18
2018-02-25T09:39:41.474Z,100154.62
2018-02-25T09:42:15.156Z,100144.78
2018-02-25T09:44:48.947Z,100139.30
2018-02-25T09:47:22.892Z,100140.73
2018-02-25T09:49:56.643Z,100140.81
2018-02-25T09:52:30.440Z,100137.36
2018-02-25T09:55:04.123Z,100140.41
2018-02-25T09:57:37.875Z,100149.63
2018-02-25T10:00:11.637Z,100145.23
2018-02-25T10:02:45.687Z,100142.89
2018-02-25T10:05:19.073Z,100144.63
2018-02-25T10:07:52.982Z,100145.64
2018-02-25T10:10:26.734Z,100158.26
2018-02-25T10:13:00.456Z,100142.53
2018-02-25T10:15:34.064Z,100147.55
2018-02-25T10:18:07.734Z,100141.60
2018-02-25T10:20:41.354Z,100132.36
2018-02-25T10:23:15.056Z,100130.52
2018-02-25T10:25:48.870Z,100127.58
2018-02-25T10:28:22.684Z,100135.28
2018-02-25T10:30:56.579Z,100131.69
2018-02-25T10:33:30.517Z,100125.80
2018-02-25T10:36:04.279Z,100130.88
2018-02-25T10:38:37.983Z,100125.41
2018-02-25T10:41:11.903Z,100131.91
2018-02-25T10:43:45.654Z,100127.91
2018-02-25T10:46:19.365Z,100126.06
2018-02-25T10:48:53.095Z,100121.47
2018-02-25T10:51:26.782Z,100113.55
2018-02-25T10:54:00.618Z,100113.27
2018-02-25T10:56:34.602Z,100110.17
2018-02-25T10:59:08.434Z,100115.10
2018-02-25T11:01:42.094Z,100113.55
2018-02-25T11:04:15.742Z,100120.22
2018-02-25T11:06:49.450Z,100118.68
2018-02-25T11:09:23.243Z,100109.25
2018-02-25T11:11:57.113Z,100113.04
2018-02-25T11:14:30.959Z,100100.02
2018-02-25T11:17:04.668Z,100103.28
2018-02-25T11:19:38.361Z,100096.53
2018-02-25T11:22:12.119Z,100095.19
2018-02-25T11:24:45.787Z,100092.11
2018-02-25T11:27:19.659Z,100079.08
2018-02-25T11:29:53.385Z,100066.78
2018-02-25T11:32:27.068Z,100069.65
2018-02-25T11:35:00.775Z,100075.59
2018-02-25T11:37:34.803Z,100074.39
2018-02-25T11:40:08.475Z,100075.11
2018-02-25T11:42:42.135Z,100064.59
2018-02-25T11:45:16.023Z,100061.73
2018-02-25T11:47:49.832Z,100054.78
2018-02-25T11:50:23.503Z,100049.95
2018-02-25T11:52:57.176Z,100046.44
2018-02-25T11:55:32.400Z,100054.43
2018-02-25T11:58:06.350Z,100056.70
2018-02-25T12:00:40.278Z,100053.87
2018-02-25T12:03:14.048Z,100054.19
2018-02-25T12:05:47.740Z,100046.06
2018-02-25T12:08:21.452Z,100040.00
2018-02-25T12:10:55.144Z,100042.06
2018-02-25T12:13:28.853Z,100042.48
2018-02-25T12:16:02.579Z,100041.05
2018-02-25T12:18:36.503Z,100032.53
2018-02-25T12:21:10.235Z,100032.95
2018-02-25T12:23:44.180Z,100033.95
2018-02-25T12:26:17.881Z,100032.94
2018-02-25T12:28:51.566Z,100026.69
2018-02-25T12:31:25.326Z,100025.14
2018-02-25T12:33:59.050Z,100020.75
2018-02-25T12:36:32.806Z,100021.88
2018-02-25T12:39:06.686Z,100024.14
2018-02-25T12:41:40.503Z,100025.80
2018-02-25T12:44:14.248Z,100011.62
2018-02-25T12:46:47.942Z,100016.57
2018-02-25T12:49:21.686Z,100012.87
2018-02-25T12:51:55.575Z,100006.59
2018-02-25T12:54:29.375Z,100002.69
2018-02-25T12:57:03.127Z,99997.05
2018-02-25T12:59:36.999Z,100003.11
2018-02-25T13:02:10.919Z,100007.52
2018-02-25T13:04:44.907Z,100000.23
2018-02-25T13:07:18.726Z,99997.77
2018-02-25T13:09:52.502Z,99992.23
2018-02-25T13:12:26.323Z,99991.41
2018-02-25T13:15:00.110Z,99997.45
2018-02-25T13:17:33.907Z,99982.48
2018-02-25T13:20:07.655Z,99982.28
2018-02-25T13:22:41.473Z,99990.17
2018-02-25T13:25:15.423Z,99980.73
2018-02-25T13:27:49.429Z,99971.11
2018-02-25T13:30:23.322Z,99975.20
2018-02-25T13:32:57.218Z,99973.05
2018-02-25T13:35:30.975Z,99970.80
2018-02-25T13:38:04.857Z,99972.84
2018-02-25T13:40:38.586Z,99977.97
2018-02-25T13:43:12.482Z,99972.16
2018-02-25T13:45:46.395Z,99971.06
2018-02-25T13:48:20.209Z,99968.64
2018-02-25T13:50:54.174Z,99970.28
2018-02-25T13:53:28.013Z,99972.97
2018-02-25T13:56:01.868Z,99969.27
2018-02-25T13:58:35.531Z,99962.33
2018-02-25T14:01:09.391Z,99973.06
2018-02-25T14:03:43.219Z,99973.00
2018-02-25T14:06:17.083Z,99964.79
2018-02-25T14:08:50.911Z,99963.39
2018-02-25T14:11:24.570Z,99966.95
2018-02-25T14:13:58.273Z,99962.18
2018-02-25T14:16:32.111Z,99956.36
2018-02-25T14:19:05.902Z,99952.98
2018-02-25T14:21:39.538Z,99961.86
2018-02-25T14:24:13.393Z,99957.70
2018-02-25T14:26:47.166Z,99957.88
2018-02-25T14:29:22.369Z,99957.80
2018-02-25T14:31:56.250Z,99961.95
2018-02-25T14:34:29.930Z,99963.10
2018-02-25T14:37:03.777Z,99958.88
2018-02-25T14:39:37.589Z,99951.09
2018-02-25T14:42:11.659Z,99956.21
2018-02-25T14:44:45.455Z,99945.55
2018-02-25T14:47:19.217Z,99954.95
2018-02-25T14:49:52.940Z,99946.16
2018-02-25T14:52:26.836Z,99947.70
2018-02-25T14:55:00.741Z,99945.69
2018-02-25T14:57:34.580Z,99948.84
2018-02-25T15:00:08.297Z,99945.75
2018-02-25T15:02:42.149Z,99946.16
2018-02-25T15:05:15.853Z,99942.41
2018-02-25T15:07:49.513Z,99937.94
2018-02-25T15:10:23.277Z,99939.97
2018-02-25T15:12:57.039Z,99944.00
2018-02-25T15:15:30.962Z,99942.48
2018-02-25T15:18:04.836Z,99941.73
2018-02-25T15:20:38.710Z,99949.42
2018-02-25T15:23:12.613Z,99937.45
2018-02-25T15:25:46.329Z,99937.55
2018-02-25T15:28:20.228Z,99936.84
2018-02-25T15:30:54.117Z,99935.17
2018-02-25T15:33:28.058Z,99936.61
2018-02-25T15:36:01.714Z,99945.10
2018-02-25T15:38:35.520Z,99943.25
2018-02-25T15:41:09.322Z,99946.42
2018-02-25T15:43:43.221Z,99949.59
2018-02-25T15:46:16.954Z,99954.98
2018-02-25T15:48:50.964Z,99954.88
2018-02-25T15:51:24.869Z,99961.63
2018-02-25T15:53:58.590Z,99967.05
2018-02-25T15:56:32.513Z,99966.42
2018-02-25T15:59:06.473Z,99972.66
2018-02-25T16:01:40.434Z,99983.80
2018-02-25T16:04:14.373Z,99974.88
2018-02-25T16:06:48.142Z,99987.78
2018-02-25T16:09:21.909Z,99977.84
2018-02-25T16:11:55.678Z,99974.73
2018-02-25T16:14:29.416Z,99967.64
2018-02-25T16:17:03.237Z,99974.27
2018-02-25T16:19:37.165Z,99973.44
2018-02-25T16:22:10.922Z,99967.61
2018-02-25T16:24:44.821Z,99979.07
2018-02-25T16:27:18.506Z,99971.06
2018-02-25T16:29:52.418Z,99970.61
2018-02-25T16:32:26.275Z,99971.43
2018-02-25T16:35:01.042Z,99984.48
2018-02-25T16:37:35.085Z,99974.55
2018-02-25T16:40:08.837Z,99985.87
2018-02-25T16:42:42.687Z,99985.53
2018-02-25T16:45:16.662Z,99972.95
2018-02-25T16:47:50.584Z,99977.06
2018-02-25T16:50:24.346Z,99983.07
2018-02-25T16:52:58.226Z,99982.98
2018-02-25T16:55:32.098Z,99981.84
2018-02-25T16:58:05.986Z,99981.37
2018-02-25T17:00:39.868Z,99976.45
2018-02-25T17:03:13.644Z,99979.61
2018-02-25T17:05:47.617Z,99979.28
2018-02-25T17:08:21.394Z,99986.63
2018-02-25T17:10:55.262Z,99987.56
2018-02-25T17:13:29.146Z,99992.23
2018-02-25T17:16:02.949Z,99993.84
2018-02-25T17:18:36.848Z,99991.56
2018-02-25T17:21:10.777Z,99988.48
2018-02-25T17:23:44.550Z,99996.37
2018-02-25T17:26:18.274Z,99995.56
2018-02-25T17:28:52.262Z,100005.91
2018-02-25T17:31:26.058Z,99999.95
2018-02-25T17:33:59.874Z,99993.59
2018-02-25T17:36:33.614Z,100000.84
2018-02-25T17:39:07.359Z,99993.89
2018-02-25T17:41:41.109Z,99992.08
2018-02-25T17:44:14.790Z,99997.19
2018-02-25T17:46:48.609Z,99995.67
2018-02-25T17:49:22.364Z,100004.44
2018-02-25T17:51:56.074Z,99995.11
2018-02-25T17:54:29.957Z,100000.88
2018-02-25T17:57:03.684Z,99997.42
2018-02-25T17:59:37.541Z,100000.33
2018-02-25T18:02:11.316Z,99999.84
2018-02-25T18:04:45.065Z,100004.14
2018-02-25T18:07:18.870Z,100011.38
2018-02-25T18:09:52.655Z,100007.17
2018-02-25T18:12:26.369Z,100008.46
2018-02-25T18:15:00.206Z,100002.33
2018-02-25T18:17:33.915Z,100007.78
2018-02-25T18:20:07.592Z,100012.66
2018-02-25T18:22:41.318Z,100012.80
2018-02-25T18:25:15.095Z,100018.67
2018-02-25T18:27:49.131Z,100017.03
2018-02-25T18:30:22.852Z,100013.22
2018-02-25T18:32:56.622Z,100021.98
2018-02-25T18:35:30.310Z,100024.48
2018-02-25T18:38:04.018Z,100017.72
2018-02-25T18:40:37.921Z,100019.79
2018-02-25T18:43:11.845Z,100012.42
2018-02-25T18:45:45.606Z,100021.21
2018-02-25T18:48:19.420Z,100018.31
2018-02-25T18:50:53.265Z,100018.53
2018-02-25T18:53:27.013Z,100023.59
2018-02-25T18:56:00.750Z,100035.70
2018-02-25T18:58:34.556Z,100026.35
2018-02-25T19:01:08.290Z,100022.44
2018-02-25T19:03:42.129Z,100018.74
2018-02-25T19:06:15.935Z,100023.42
2018-02-25T19:08:49.869Z,100029.28
2018-02-25T19:11:23.573Z,100032.55
2018-02-25T19:13:57.452Z,100029.84
2018-02-25T19:16:31.493Z,100040.30
2018-02-25T19:19:05.388Z,100041.75
2018-02-25T19:21:39.142Z,100040.80
2018-02-25T19:24:13.104Z,100040.99
2018-02-25T19:26:46.862Z,100040.30
2018-02-25T19:29:20.575Z,100041.72
2018-02-25T19:31:54.342Z,100038.84
2018-02-25T19:34:29.178Z,100045.16
2018-02-25T19:37:08.486Z,100039.84
2018-02-25T19:39:47.995Z,100042.31
2018-02-25T19:42:21.932Z,100042.44
2018-02-25T19:44:55.626Z,100042.56
2018-02-25T19:47:29.498Z,100041.30
2018-02-25T19:50:03.403Z,100052.41
2018-02-25T19:52:37.063Z,100048.23
2018-02-25T19:55:10.805Z,100055.78
2018-02-25T19:57:44.482Z,100054.83
2018-02-25T20:00:18.254Z,100057.50
2018-02-25T20:02:52.023Z,100055.14
2018-02-25T20:05:25.905Z,100061.36
2018-02-25T20:07:59.833Z,100062.27
2018-02-25T20:10:33.530Z,100068.55
2018-02-25T20:13:07.297Z,100065.48
2018-02-25T20:15:40.959Z,100063.94
2018-02-25T20:18:14.670Z,100068.19
2018-02-25T20:20:48.395Z,100075.64
2018-02-25T20:23:22.081Z,100067.05
2018-02-25T20:25:55.802Z,100075.44
2018-02-25T20:28:29.486Z,100070.87
2018-02-25T20:31:03.233Z,100075.81
2018-02-25T20:33:36.974Z,100074.63
2018-02-25T20:36:10.690Z,100083.53
2018-02-25T20:38:44.429Z,100083.53
2018-02-25T20:41:18.161Z,100072.02
2018-02-25T20:43:52.549Z,100073.63
2018-02-25T20:46:26.425Z,100084.50
2018-02-25T20:49:00.124Z,100085.63
2018-02-25T20:51:33.928Z,100086.36
2018-02-25T20:54:07.682Z,100087.08
2018-02-25T20:56:41.431Z,100085.02
2018-02-25T20:59:15.431Z,100082.84
2018-02-25T21:01:49.181Z,100090.33
2018-02-25T21:04:22.978Z,100083.06
2018-02-25T21:06:56.698Z,100092.83
2018-02-25T21:09:30.357Z,100084.64
2018-02-25T21:12:04.022Z,100087.23
2018-02-25T21:14:37.666Z,100092.03
2018-02-25T21:17:11.401Z,100084.91
2018-02-25T21:19:45.263Z,100095.50
2018-02-25T21:22:19.013Z,100091.94
2018-02-25T21:24:53.037Z,100096.09
2018-02-25T21:27:26.870Z,100086.92
2018-02-25T21:30:00.556Z,100097.72
2018-02-25T21:32:34.329Z,100104.55
2018-02-25T21:35:08.140Z,100101.58
2018-02-25T21:37:41.825Z,100095.25
2018-02-25T21:40:15.518Z,100110.67
2018-02-25T21:42:49.236Z,100108.75
2018-02-25T21:45:23.050Z,100106.27
2018-02-25T21:47:56.760Z,100102.97
2018-02-25T21:50:30.606Z,100108.00
2018-02-25T21:53:04.406Z,100097.66
2018-02-25T21:55:38.114Z,100097.73
2018-02-25T21:58:17.737Z,100101.97
2018-02-25T22:00:57.105Z,100100.73
2018-02-25T22:03:36.954Z,100108.50
2018-02-25T22:06:10.856Z,100102.70
2018-02-25T22:08:44.574Z,100100.88
2018-02-25T22:11:18.346Z,100102.68
2018-02-25T22:13:52.066Z,100097.41
2018-02-25T22:16:25.881Z,100090.80
2018-02-25T22:18:59.589Z,100104.44
2018-02-25T22:21:33.358Z,100097.27
2018-02-25T22:24:07.211Z,100099.80
2018-02-25T22:26:40.861Z,100093.23
2018-02-25T22:29:14.586Z,100101.91
2018-02-25T22:31:48.326Z,100096.61
2018-02-25T22:34:22.070Z,100103.34
2018-02-25T22:36:55.716Z,100102.34
2018-02-25T22:39:29.586Z,100098.58
2018-02-25T22:42:03.369Z,100097.02
2018-02-25T22:44:37.144Z,100102.16
2018-02-25T22:47:10.821Z,100103.19
2018-02-25T22:49:44.754Z,100099.92
2018-02-25T22:52:18.413Z,100093.41
2018-02-25T22:54:52.219Z,100101.19
2018-02-25T22:57:25.929Z,100102.03
2018-02-25T22:59:59.646Z,100104.66
2018-02-25T23:02:33.441Z,100100.02
2018-02-25T23:05:07.122Z,100107.64
2018-02-25T23:07:40.805Z,100099.33
2018-02-25T23:10:14.663Z,100106.95
2018-02-25T23:12:48.602Z,100105.37
2018-02-25T23:15:22.266Z,100111.98
2018-02-25T23:17:55.985Z,100114.14
2018-02-25T23:20:29.668Z,100113.33
2018-02-25T23:23:03.382Z,100115.05
2018-02-25T23:25:37.154Z,100111.67
2018-02-25T23:28:10.893Z,100114.76
2018-02-25T23:30:44.794Z,100124.98
2018-02-25T23:33:18.521Z,100115.65
2018-02-25T23:35:52.477Z,100115.05
2018-02-25T23:38:26.182Z,100121.44
2018-02-25T23:40:59.990Z,100119.44
2018-02-25T23:43:33.699Z,100123.15
2018-02-25T23:46:07.474Z,100121.25
2018-02-25T23:48:41.191Z,100120.68
2018-02-25T23:51:15.123Z,100114.52
2018-02-25T23:53:48.930Z,100113.62
2018-02-25T23:56:22.774Z,100113.28
2018-02-25T23:58:56.675Z,100117.24
